Time;durP1;ratioP1;P1;durP2;ratioP2;P2;SDS_P1;SDS_P2;PMS_P1;PMS_P2;Temp;Humidity;BMP_temperature;BMP_pressure;BME280_temperature;BME280_humidity;BME280_pressure;Samples;Min_cycle;Max_cycle;Signal;HPM_P1;HPM_P2
2023/11/03 00:00:12;;;;;;;2.73;0.87;;;14.80;99.90;;;;;;5094100;28;20230;-79
2023/11/03 00:02:39;;;;;;;0.33;0.33;;;14.90;99.90;;;;;;5090599;28;20209;-79
2023/11/03 00:05:12;;;;;;;0.93;0.57;;;14.90;99.90;;;;;;5100308;28;20207;-81
2023/11/03 00:07:40;;;;;;;1.60;0.60;;;14.90;99.90;;;;;;5100928;28;20283;-82
2023/11/03 00:10:14;;;;;;;0.40;0.40;;;14.90;99.90;;;;;;5085857;27;20222;-80
2023/11/03 00:12:41;;;;;;;1.83;0.67;;;14.90;99.90;;;;;;5104839;28;20215;-84
2023/11/03 00:15:11;;;;;;;0.77;0.53;;;14.90;99.90;;;;;;5110991;28;20218;-82
2023/11/03 00:17:38;;;;;;;0.37;0.37;;;15.00;99.90;;;;;;5115014;27;20208;-80
2023/11/03 00:20:06;;;;;;;0.33;0.33;;;15.00;99.90;;;;;;5096578;28;20243;-80
2023/11/03 00:22:33;;;;;;;0.80;0.60;;;15.00;99.90;;;;;;5080434;28;20258;-80
2023/11/03 00:25:02;;;;;;;0.50;0.40;;;15.00;99.90;;;;;;5095591;28;20681;-80
2023/11/03 00:27:30;;;;;;;0.57;0.43;;;15.00;99.90;;;;;;5096356;28;20213;-81
2023/11/03 00:30:01;;;;;;;2.90;0.53;;;15.00;99.90;;;;;;5100033;28;20216;-80
2023/11/03 00:32:29;;;;;;;0.30;0.30;;;15.00;99.90;;;;;;5094703;27;20269;-80
2023/11/03 00:34:56;;;;;;;0.73;0.53;;;15.00;99.90;;;;;;5100840;28;20204;-81
2023/11/03 00:37:25;;;;;;;0.50;0.40;;;15.00;99.90;;;;;;5097304;28;20268;-81
2023/11/03 00:39:57;;;;;;;0.50;0.50;;;15.00;99.90;;;;;;5069981;28;20229;-83
2023/11/03 00:42:24;;;;;;;1.10;0.70;;;15.00;99.90;;;;;;5092484;28;20375;-83
2023/11/03 00:44:53;;;;;;;0.93;0.50;;;15.00;99.90;;;;;;5088548;28;20196;-83
2023/11/03 00:47:20;;;;;;;0.50;0.37;;;15.00;99.90;;;;;;5098838;28;20630;-81
2023/11/03 00:49:48;;;;;;;0.60;0.50;;;15.00;99.90;;;;;;5105657;27;20211;-82
2023/11/03 00:52:15;;;;;;;1.13;0.60;;;15.00;99.90;;;;;;5109352;28;20577;-83
2023/11/03 00:54:42;;;;;;;0.73;0.40;;;15.00;99.90;;;;;;5083672;27;20725;-81
2023/11/03 00:57:09;;;;;;;1.00;0.43;;;15.00;99.90;;;;;;5093071;27;20706;-82
2023/11/03 00:59:37;;;;;;;0.60;0.40;;;15.00;99.90;;;;;;5103469;27;20253;-83
2023/11/03 01:02:09;;;;;;;0.60;0.60;;;15.00;99.90;;;;;;5083376;28;20207;-83
2023/11/03 01:04:36;;;;;;;1.13;0.50;;;15.00;99.90;;;;;;5111447;27;20693;-83
2023/11/03 01:07:07;;;;;;;0.83;0.40;;;14.90;99.90;;;;;;5109854;28;20605;-83
2023/11/03 01:09:38;;;;;;;1.80;0.40;;;14.90;99.90;;;;;;5087291;27;20204;-83
2023/11/03 01:25:29;;;;;;;0.20;0.20;;;14.90;99.90;;;;;;5061880;28;21203;-63
2023/11/03 01:27:56;;;;;;;0.30;0.30;;;15.30;99.90;;;;;;5057822;28;20298;-63
2023/11/03 01:30:23;;;;;;;1.10;0.40;;;15.30;99.90;;;;;;5057589;28;20249;-64
2023/11/03 01:32:52;;;;;;;1.10;0.73;;;15.30;99.90;;;;;;5061614;28;20204;-63
2023/11/03 01:35:21;;;;;;;0.83;0.80;;;15.20;99.90;;;;;;5056490;28;20212;-63
2023/11/03 01:37:48;;;;;;;0.30;0.30;;;15.20;99.90;;;;;;5058844;28;20214;-63
2023/11/03 01:40:15;;;;;;;0.40;0.40;;;15.20;99.90;;;;;;5059211;28;20193;-63
2023/11/03 01:42:43;;;;;;;0.40;0.40;;;15.20;99.90;;;;;;5058100;28;20590;-63
2023/11/03 01:45:10;;;;;;;1.20;0.40;;;15.10;99.90;;;;;;5058683;28;20794;-63
2023/11/03 01:47:37;;;;;;;1.70;0.40;;;15.10;99.90;;;;;;5059262;28;20194;-63
2023/11/03 01:50:05;;;;;;;0.50;0.50;;;15.10;99.90;;;;;;5061528;28;20201;-63
2023/11/03 01:52:36;;;;;;;0.30;0.23;;;15.10;99.90;;;;;;5062807;28;20567;-64
2023/11/03 01:55:04;;;;;;;1.33;0.23;;;15.10;99.90;;;;;;5057489;28;20232;-64
2023/11/03 01:57:31;;;;;;;0.40;0.40;;;15.10;99.90;;;;;;5059464;28;20257;-64
2023/11/03 01:59:58;;;;;;;0.67;0.50;;;15.00;99.90;;;;;;5060371;28;20206;-63
2023/11/03 02:02:27;;;;;;;0.87;0.67;;;15.00;99.90;;;;;;5062582;28;20695;-64
2023/11/03 02:04:54;;;;;;;1.27;0.40;;;15.00;99.90;;;;;;5060152;28;20206;-63
2023/11/03 02:07:22;;;;;;;0.40;0.40;;;15.00;99.90;;;;;;5055912;28;20215;-63
2023/11/03 02:09:48;;;;;;;0.30;0.30;;;14.90;99.90;;;;;;5056689;28;20203;-64
2023/11/03 02:12:16;;;;;;;0.43;0.43;;;14.90;99.90;;;;;;5066586;28;20201;-63
2023/11/03 02:14:43;;;;;;;1.03;0.43;;;14.90;99.90;;;;;;5057849;28;20207;-63
2023/11/03 02:17:10;;;;;;;0.50;0.50;;;14.90;99.90;;;;;;5064508;28;20292;-63
2023/11/03 02:19:37;;;;;;;0.80;0.40;;;14.80;99.90;;;;;;5052475;28;20294;-63
2023/11/03 02:22:04;;;;;;;0.30;0.30;;;14.80;99.90;;;;;;5058529;28;20241;-63
2023/11/03 02:24:31;;;;;;;0.50;0.40;;;14.80;99.90;;;;;;5050734;28;20250;-64
2023/11/03 02:26:58;;;;;;;2.00;0.30;;;14.80;99.90;;;;;;5044888;28;20199;-64
2023/11/03 02:29:25;;;;;;;1.23;0.67;;;14.80;99.90;;;;;;5044531;28;20314;-63
2023/11/03 02:31:52;;;;;;;1.67;0.50;;;14.80;99.90;;;;;;5044222;28;20302;-65
2023/11/03 02:34:19;;;;;;;0.50;0.50;;;14.80;99.90;;;;;;5041818;28;20234;-65
2023/11/03 02:36:47;;;;;;;0.47;0.40;;;14.80;99.90;;;;;;5041533;28;20732;-65
2023/11/03 02:39:14;;;;;;;0.80;0.43;;;14.80;99.90;;;;;;5041669;28;20210;-66
2023/11/03 02:41:41;;;;;;;0.67;0.67;;;14.80;99.90;;;;;;5057990;28;20593;-66
2023/11/03 02:44:08;;;;;;;0.87;0.47;;;14.80;99.90;;;;;;5045836;28;20210;-66
2023/11/03 02:46:35;;;;;;;0.80;0.60;;;14.80;99.90;;;;;;5040331;28;20203;-66
2023/11/03 02:49:02;;;;;;;2.00;0.47;;;14.70;99.90;;;;;;5040962;28;20222;-65
2023/11/03 02:51:29;;;;;;;0.50;0.40;;;14.80;99.90;;;;;;5041905;28;20281;-65
2023/11/03 02:53:57;;;;;;;0.40;0.40;;;14.80;99.90;;;;;;5044070;28;20225;-66
2023/11/03 02:56:24;;;;;;;3.80;1.07;;;14.70;99.90;;;;;;5041867;28;20195;-66
2023/11/03 02:58:52;;;;;;;1.53;0.50;;;14.70;99.90;;;;;;5042987;28;20191;-66
2023/11/03 03:01:26;;;;;;;0.57;0.50;;;14.70;99.90;;;;;;5040237;28;20199;-65
2023/11/03 03:03:53;;;;;;;0.40;0.40;;;14.60;99.90;;;;;;5043580;28;20652;-66
2023/11/03 03:06:20;;;;;;;1.40;0.40;;;14.60;99.90;;;;;;5045384;28;20207;-66
2023/11/03 03:08:48;;;;;;;1.50;0.33;;;14.50;99.90;;;;;;5040841;28;20223;-66
2023/11/03 03:11:15;;;;;;;0.73;0.40;;;14.50;99.90;;;;;;5046809;28;20203;-66
2023/11/03 03:13:43;;;;;;;2.47;0.47;;;14.40;99.90;;;;;;5044747;28;20554;-66
2023/11/03 03:16:10;;;;;;;0.53;0.53;;;14.40;99.90;;;;;;5056450;28;20679;-65
2023/11/03 03:18:37;;;;;;;1.23;0.43;;;14.30;99.90;;;;;;5039508;28;20630;-66
2023/11/03 03:21:05;;;;;;;5.47;0.83;;;14.30;99.90;;;;;;5047960;28;20199;-65
2023/11/03 03:23:31;;;;;;;5.77;0.60;;;14.20;99.90;;;;;;5045723;28;20281;-66
2023/11/03 03:25:58;;;;;;;0.47;0.40;;;14.20;99.90;;;;;;5050061;28;20218;-65
2023/11/03 03:28:25;;;;;;;1.60;0.67;;;14.20;99.90;;;;;;5045454;28;20194;-65
2023/11/03 03:30:52;;;;;;;1.67;0.53;;;14.20;99.90;;;;;;5044998;28;20313;-65
2023/11/03 03:33:20;;;;;;;2.87;0.40;;;14.20;99.90;;;;;;5048959;28;20202;-65
2023/11/03 03:35:47;;;;;;;1.30;0.60;;;14.20;99.90;;;;;;5041595;28;20285;-66
2023/11/03 03:38:14;;;;;;;0.63;0.63;;;14.20;99.90;;;;;;5042037;28;20225;-66
2023/11/03 03:40:41;;;;;;;0.93;0.40;;;14.10;99.90;;;;;;5042012;28;20194;-65
2023/11/03 03:43:08;;;;;;;2.23;0.47;;;14.20;99.90;;;;;;5041330;28;20187;-65
2023/11/03 03:45:35;;;;;;;2.87;0.57;;;14.10;99.90;;;;;;5041859;28;20214;-66
2023/11/03 03:48:02;;;;;;;0.30;0.30;;;14.10;99.90;;;;;;5042583;28;20817;-65
2023/11/03 03:50:29;;;;;;;1.80;0.60;;;14.10;99.90;;;;;;5041655;28;20537;-65
2023/11/03 03:52:56;;;;;;;2.37;0.73;;;14.10;99.90;;;;;;5044334;28;20708;-66
2023/11/03 03:55:23;;;;;;;1.07;0.50;;;14.10;99.90;;;;;;5041167;28;20543;-66
2023/11/03 03:57:50;;;;;;;3.13;0.50;;;14.10;99.90;;;;;;5040818;28;20202;-65
2023/11/03 04:00:18;;;;;;;0.77;0.60;;;14.10;99.90;;;;;;5043071;28;20191;-64
2023/11/03 04:02:45;;;;;;;1.13;0.40;;;14.00;99.90;;;;;;5041755;28;20502;-65
2023/11/03 04:05:13;;;;;;;0.83;0.40;;;14.00;99.90;;;;;;5041997;28;20199;-65
2023/11/03 04:07:40;;;;;;;1.10;0.33;;;14.00;99.90;;;;;;5041501;28;20256;-65
2023/11/03 04:10:07;;;;;;;0.73;0.40;;;14.00;99.90;;;;;;5042566;28;20272;-65
2023/11/03 04:12:35;;;;;;;3.63;0.53;;;13.90;99.90;;;;;;5036969;28;20220;-66
2023/11/03 04:15:02;;;;;;;2.63;0.40;;;13.90;99.90;;;;;;5039131;28;20214;-66
2023/11/03 04:17:29;;;;;;;0.43;0.30;;;13.90;99.90;;;;;;5044833;28;20268;-65
2023/11/03 04:19:56;;;;;;;0.67;0.30;;;13.90;99.90;;;;;;5039271;28;20302;-66
2023/11/03 04:22:23;;;;;;;0.30;0.30;;;13.90;99.90;;;;;;5040522;28;20293;-66
2023/11/03 04:24:50;;;;;;;1.13;0.60;;;13.80;99.90;;;;;;5046132;28;20322;-66
2023/11/03 04:27:17;;;;;;;0.50;0.50;;;13.70;99.90;;;;;;5043279;28;20595;-66
2023/11/03 04:29:44;;;;;;;0.43;0.30;;;13.70;99.90;;;;;;5046458;28;20209;-66
2023/11/03 04:32:11;;;;;;;1.93;0.33;;;13.70;99.90;;;;;;5038523;28;20234;-66
2023/11/03 04:34:38;;;;;;;0.83;0.47;;;13.60;99.90;;;;;;5039067;28;20288;-66
2023/11/03 04:37:06;;;;;;;3.00;0.40;;;13.60;99.90;;;;;;5041429;28;20197;-66
2023/11/03 04:39:33;;;;;;;0.60;0.50;;;13.60;99.90;;;;;;5042778;28;20210;-66
2023/11/03 04:41:59;;;;;;;0.77;0.50;;;13.60;99.90;;;;;;5041631;28;20203;-65
2023/11/03 04:44:27;;;;;;;1.90;0.60;;;13.50;99.90;;;;;;5035314;28;20211;-65
2023/11/03 04:46:54;;;;;;;0.60;0.60;;;13.50;99.90;;;;;;5040504;28;20202;-65
2023/11/03 04:49:21;;;;;;;1.07;0.60;;;13.50;99.90;;;;;;5042641;28;20207;-65
2023/11/03 04:51:49;;;;;;;0.97;0.50;;;13.50;99.90;;;;;;5042200;28;20296;-66
2023/11/03 04:54:16;;;;;;;0.40;0.40;;;13.40;99.90;;;;;;5042886;28;20296;-66
2023/11/03 04:56:44;;;;;;;4.13;0.30;;;13.40;99.90;;;;;;5043245;28;20289;-65
2023/11/03 04:59:11;;;;;;;0.60;0.60;;;13.40;99.90;;;;;;5039163;28;20203;-66
2023/11/03 05:01:38;;;;;;;1.23;0.50;;;13.40;99.90;;;;;;5044104;28;20636;-65
2023/11/03 05:04:06;;;;;;;0.73;0.40;;;13.40;99.90;;;;;;5037509;28;20206;-65
2023/11/03 05:06:33;;;;;;;1.63;0.50;;;13.40;99.90;;;;;;5036024;28;20555;-65
2023/11/03 05:09:00;;;;;;;1.90;0.50;;;13.40;99.90;;;;;;5035303;28;20195;-65
2023/11/03 05:11:28;;;;;;;4.83;0.60;;;13.40;99.90;;;;;;5047525;28;20202;-66
2023/11/03 05:13:56;;;;;;;0.50;0.50;;;13.40;99.90;;;;;;5039867;28;20226;-65
2023/11/03 05:16:23;;;;;;;3.93;0.70;;;13.50;99.90;;;;;;5040248;28;20287;-65
2023/11/03 05:18:50;;;;;;;5.77;0.70;;;13.50;99.90;;;;;;5042012;28;20199;-64
2023/11/03 05:21:17;;;;;;;3.30;1.17;;;13.50;99.90;;;;;;5036958;28;20195;-65
2023/11/03 05:23:44;;;;;;;1.03;0.53;;;13.50;99.90;;;;;;5037361;28;20231;-65
2023/11/03 05:26:14;;;;;;;2.87;0.63;;;13.60;99.90;;;;;;5042881;28;20225;-65
2023/11/03 05:28:41;;;;;;;1.10;0.67;;;13.60;99.90;;;;;;5042363;28;20210;-65
2023/11/03 05:31:09;;;;;;;3.47;0.90;;;13.70;99.70;;;;;;5044292;28;20552;-65
2023/11/03 05:33:36;;;;;;;2.23;0.60;;;13.70;99.40;;;;;;5040787;28;20194;-65
2023/11/03 05:36:03;;;;;;;1.87;0.53;;;13.70;99.00;;;;;;5038463;28;20303;-66
2023/11/03 05:38:30;;;;;;;0.80;0.43;;;13.80;98.60;;;;;;5041043;28;20231;-66
2023/11/03 05:40:57;;;;;;;2.00;0.40;;;13.80;98.30;;;;;;5036194;28;20617;-65
2023/11/03 05:43:24;;;;;;;0.30;0.30;;;13.80;98.10;;;;;;5040673;28;20256;-65
2023/11/03 05:45:51;;;;;;;1.77;0.70;;;13.80;97.90;;;;;;5044213;28;20542;-65
2023/11/03 05:48:18;;;;;;;2.67;0.60;;;13.70;97.80;;;;;;5040209;28;20285;-65
2023/11/03 05:50:45;;;;;;;1.03;0.33;;;13.70;97.70;;;;;;5035556;28;20223;-66
2023/11/03 05:53:12;;;;;;;1.57;0.37;;;13.70;97.80;;;;;;5038843;28;20202;-66
2023/11/03 05:55:41;;;;;;;1.90;0.53;;;13.70;97.80;;;;;;5039742;28;20207;-65
2023/11/03 05:58:08;;;;;;;4.50;0.50;;;13.60;97.80;;;;;;5042193;28;20203;-65
2023/11/03 06:00:35;;;;;;;1.80;0.60;;;13.60;97.80;;;;;;5037369;28;20233;-65
2023/11/03 06:03:02;;;;;;;3.87;0.83;;;13.50;97.80;;;;;;5043566;28;20192;-65
2023/11/03 06:05:29;;;;;;;2.67;0.50;;;13.50;97.80;;;;;;5043812;28;20230;-65
2023/11/03 06:07:57;;;;;;;3.30;0.80;;;13.50;97.80;;;;;;5046348;28;20251;-65
2023/11/03 06:10:24;;;;;;;3.50;1.00;;;13.50;97.80;;;;;;5041577;28;20278;-66
2023/11/03 06:12:51;;;;;;;2.73;1.07;;;13.40;97.80;;;;;;5047090;28;20563;-65
2023/11/03 06:15:18;;;;;;;0.90;0.80;;;13.40;97.80;;;;;;5045626;28;20551;-65
2023/11/03 06:17:45;;;;;;;2.63;0.80;;;13.50;97.80;;;;;;5048550;28;20227;-65
2023/11/03 06:20:13;;;;;;;3.93;0.80;;;13.40;97.80;;;;;;5038828;28;20196;-65
2023/11/03 06:22:40;;;;;;;3.23;0.63;;;13.50;97.80;;;;;;5044729;28;20217;-66
2023/11/03 06:25:07;;;;;;;3.57;1.17;;;13.50;97.70;;;;;;5039945;28;20248;-65
2023/11/03 06:27:35;;;;;;;4.17;0.93;;;13.50;97.60;;;;;;5043545;28;20210;-65
2023/11/03 06:30:02;;;;;;;1.57;0.90;;;13.60;97.60;;;;;;5038912;28;20269;-66
2023/11/03 06:32:29;;;;;;;4.73;1.10;;;13.60;97.50;;;;;;5047105;28;20205;-65
2023/11/03 06:34:56;;;;;;;1.80;0.90;;;13.60;97.20;;;;;;5043049;28;20239;-65
2023/11/03 06:37:23;;;;;;;3.17;0.80;;;13.70;97.00;;;;;;5037757;28;20215;-66
2023/11/03 06:39:53;;;;;;;7.73;1.20;;;13.70;96.60;;;;;;5040964;28;20192;-65
2023/11/03 06:42:20;;;;;;;2.77;1.30;;;13.90;96.20;;;;;;5045402;28;20225;-65
2023/11/03 06:44:47;;;;;;;4.57;1.30;;;14.00;96.00;;;;;;5042670;28;20645;-64
2023/11/03 06:47:14;;;;;;;4.00;0.60;;;14.20;95.80;;;;;;5041961;28;20211;-65
2023/11/03 06:49:44;;;;;;;1.83;1.17;;;14.30;95.90;;;;;;5044211;28;20206;-65
2023/11/03 06:52:12;;;;;;;2.70;1.00;;;14.30;95.90;;;;;;5041331;28;20293;-66
2023/11/03 06:54:39;;;;;;;1.90;0.80;;;14.40;95.90;;;;;;5040431;28;20225;-66
2023/11/03 06:57:06;;;;;;;3.97;1.40;;;14.50;96.00;;;;;;5039733;28;20237;-65
2023/11/03 06:59:34;;;;;;;7.17;1.37;;;14.60;96.10;;;;;;5042837;28;20249;-65
2023/11/03 07:02:01;;;;;;;3.77;1.10;;;14.70;95.90;;;;;;5046100;28;20202;-65
2023/11/03 07:04:28;;;;;;;4.73;1.07;;;14.80;95.40;;;;;;5039743;28;20243;-65
2023/11/03 07:06:55;;;;;;;3.93;1.23;;;14.80;95.20;;;;;;5041203;28;20207;-65
2023/11/03 07:09:23;;;;;;;4.47;1.00;;;15.00;95.40;;;;;;5045587;28;20209;-65
2023/11/03 07:11:50;;;;;;;5.63;0.90;;;15.30;95.10;;;;;;5044025;28;20264;-65
2023/11/03 07:14:18;;;;;;;4.30;1.60;;;15.60;94.60;;;;;;5037859;28;20242;-65
2023/11/03 07:16:47;;;;;;;5.87;2.03;;;15.80;94.20;;;;;;5040903;28;20828;-65
2023/11/03 07:19:14;;;;;;;3.33;1.00;;;15.80;94.10;;;;;;5045673;28;20211;-66
2023/11/03 07:21:41;;;;;;;2.63;0.90;;;15.90;94.10;;;;;;5045816;28;20191;-65
2023/11/03 07:24:08;;;;;;;3.33;1.07;;;16.20;93.90;;;;;;5042931;28;20238;-65
2023/11/03 07:26:36;;;;;;;2.60;1.37;;;16.40;93.40;;;;;;5041844;28;20205;-65
2023/11/03 07:29:03;;;;;;;3.70;1.87;;;16.80;93.00;;;;;;5044611;28;20641;-65
2023/11/03 07:31:31;;;;;;;2.33;1.00;;;17.00;92.70;;;;;;5043154;28;20241;-66
2023/11/03 07:34:01;;;;;;;6.57;1.30;;;17.20;92.40;;;;;;5051147;28;20199;-65
2023/11/03 07:36:29;;;;;;;4.90;1.67;;;17.40;92.10;;;;;;5044192;28;20215;-66
2023/11/03 07:38:58;;;;;;;5.60;1.17;;;17.50;91.70;;;;;;5041256;28;20208;-65
2023/11/03 07:41:25;;;;;;;6.17;1.83;;;17.70;91.20;;;;;;5040690;28;20218;-66
2023/11/03 07:43:52;;;;;;;2.40;0.73;;;17.70;90.70;;;;;;5037496;28;20240;-66
2023/11/03 07:46:19;;;;;;;3.07;1.27;;;17.80;90.60;;;;;;5041938;28;20624;-66
2023/11/03 07:48:46;;;;;;;5.57;0.90;;;17.80;90.40;;;;;;5042651;28;20626;-65
2023/11/03 07:51:14;;;;;;;1.90;0.93;;;17.80;90.20;;;;;;5040830;28;20621;-65
2023/11/03 07:53:41;;;;;;;1.77;0.80;;;17.80;90.20;;;;;;5037850;28;20202;-66
2023/11/03 07:56:08;;;;;;;2.50;0.70;;;17.80;89.20;;;;;;5040726;28;20226;-65
2023/11/03 07:58:35;;;;;;;4.20;0.60;;;17.60;87.90;;;;;;5042967;28;20223;-65
2023/11/03 08:01:05;;;;;;;11.43;2.20;;;17.30;86.20;;;;;;5036702;28;20576;-66
2023/11/03 08:03:32;;;;;;;6.70;1.10;;;17.00;86.20;;;;;;5034683;28;20719;-65
2023/11/03 08:06:03;;;;;;;4.03;1.40;;;16.70;86.60;;;;;;5042915;28;20200;-67
2023/11/03 08:08:31;;;;;;;7.27;1.37;;;16.30;88.00;;;;;;5044057;28;20766;-66
2023/11/03 08:10:58;;;;;;;4.20;1.10;;;16.00;89.80;;;;;;5044707;28;20211;-66
2023/11/03 08:13:27;;;;;;;2.87;0.77;;;15.80;90.60;;;;;;5043932;28;20214;-65
2023/11/03 08:15:54;;;;;;;4.07;1.10;;;15.50;91.00;;;;;;5040061;28;20230;-66
2023/11/03 08:18:21;;;;;;;4.13;0.80;;;15.20;91.40;;;;;;5044386;28;20199;-66
2023/11/03 08:20:49;;;;;;;5.97;1.07;;;15.00;91.90;;;;;;5042149;28;20249;-67
2023/11/03 08:23:17;;;;;;;4.83;1.13;;;14.80;92.40;;;;;;5058119;28;20637;-66
2023/11/03 08:25:48;;;;;;;2.33;0.70;;;14.60;92.80;;;;;;5044963;28;20545;-66
2023/11/03 08:28:15;;;;;;;3.93;0.93;;;14.40;93.20;;;;;;5040588;28;20225;-66
2023/11/03 08:30:43;;;;;;;4.37;1.30;;;14.20;93.50;;;;;;5044292;28;20210;-67
2023/11/03 08:33:10;;;;;;;2.03;0.77;;;14.10;93.90;;;;;;5050364;28;20206;-67
2023/11/03 08:35:38;;;;;;;2.67;0.60;;;14.10;94.20;;;;;;5039587;28;20310;-66
2023/11/03 08:38:05;;;;;;;1.07;0.60;;;14.00;94.50;;;;;;5039555;28;20202;-66
2023/11/03 08:40:32;;;;;;;4.97;1.00;;;13.90;94.70;;;;;;5056876;28;20241;-67
2023/11/03 08:42:59;;;;;;;3.70;0.60;;;13.90;95.00;;;;;;5040194;28;20198;-67
2023/11/03 08:45:26;;;;;;;3.57;1.33;;;13.90;95.20;;;;;;5040985;28;20210;-66
2023/11/03 08:47:54;;;;;;;1.20;0.50;;;13.80;95.30;;;;;;5034674;28;20300;-66
2023/11/03 08:50:21;;;;;;;1.60;0.47;;;13.80;95.40;;;;;;5043726;28;20257;-65
2023/11/03 08:52:48;;;;;;;1.40;0.63;;;13.80;95.40;;;;;;5035951;28;20195;-66
2023/11/03 08:55:15;;;;;;;1.30;0.30;;;13.80;95.50;;;;;;5041505;28;20223;-66
2023/11/03 08:57:43;;;;;;;0.30;0.30;;;13.80;95.50;;;;;;5037504;28;20191;-66
2023/11/03 09:00:15;;;;;;;0.30;0.30;;;13.80;95.40;;;;;;5041471;28;20284;-66
2023/11/03 09:02:48;;;;;;;1.20;0.47;;;13.80;95.20;;;;;;5039998;28;20656;-66
2023/11/03 09:05:16;;;;;;;0.23;0.23;;;13.70;95.10;;;;;;5041290;28;20544;-66
2023/11/03 09:07:44;;;;;;;0.30;0.20;;;13.70;95.00;;;;;;5044017;28;20547;-66
2023/11/03 09:10:11;;;;;;;0.73;0.40;;;13.70;94.90;;;;;;5038634;28;20226;-65
2023/11/03 09:12:42;;;;;;;0.30;0.30;;;13.60;94.80;;;;;;5037534;28;20233;-66
2023/11/03 09:15:10;;;;;;;0.53;0.20;;;13.60;94.70;;;;;;5041708;28;20226;-66
2023/11/03 09:17:37;;;;;;;0.93;0.20;;;13.60;94.60;;;;;;5036641;28;20214;-65
2023/11/03 09:20:05;;;;;;;0.97;0.30;;;13.60;94.70;;;;;;5039759;28;20198;-66
2023/11/03 09:22:32;;;;;;;0.30;0.30;;;13.60;94.70;;;;;;5040014;28;20224;-65
2023/11/03 09:25:04;;;;;;;0.50;0.30;;;13.60;94.70;;;;;;5042374;28;20341;-65
2023/11/03 09:27:33;;;;;;;0.20;0.20;;;13.60;94.60;;;;;;5046979;28;20531;-65
2023/11/03 09:30:04;;;;;;;0.10;0.10;;;13.60;94.40;;;;;;5035367;28;20205;-65
2023/11/03 09:32:32;;;;;;;0.97;0.37;;;13.60;94.40;;;;;;5036803;28;20202;-65
2023/11/03 09:34:59;;;;;;;0.33;0.20;;;13.50;94.20;;;;;;5043371;28;20269;-65
2023/11/03 09:37:26;;;;;;;0.20;0.20;;;13.50;94.20;;;;;;5045131;28;20284;-65
2023/11/03 09:39:54;;;;;;;0.20;0.20;;;13.50;94.20;;;;;;5043695;28;20223;-66
2023/11/03 09:42:23;;;;;;;0.20;0.20;;;13.40;94.10;;;;;;5048068;28;20801;-66
2023/11/03 09:44:50;;;;;;;0.30;0.20;;;13.40;94.20;;;;;;5047835;28;20280;-66
2023/11/03 09:47:19;;;;;;;1.87;0.30;;;13.40;94.30;;;;;;5039966;28;20207;-65
2023/11/03 09:49:46;;;;;;;0.20;0.20;;;13.40;94.40;;;;;;5043394;28;20678;-65
2023/11/03 09:52:14;;;;;;;2.20;0.27;;;13.50;94.40;;;;;;5045848;28;20601;-66
2023/11/03 09:54:41;;;;;;;0.70;0.13;;;13.50;94.30;;;;;;5044174;28;20205;-66
2023/11/03 09:57:11;;;;;;;0.57;0.40;;;13.50;94.20;;;;;;5041284;28;20241;-65
2023/11/03 09:59:39;;;;;;;0.20;0.20;;;13.60;94.10;;;;;;5040803;28;20709;-65
2023/11/03 10:02:20;;;;;;;0.20;0.20;;;13.60;94.00;;;;;;5044001;28;20214;-65
2023/11/03 10:04:47;;;;;;;0.20;0.20;;;13.70;93.90;;;;;;5047361;28;20197;-66
2023/11/03 10:07:17;;;;;;;0.33;0.30;;;13.70;93.70;;;;;;5040974;28;20199;-65
2023/11/03 10:09:44;;;;;;;0.30;0.30;;;13.80;93.70;;;;;;5040947;28;20205;-65
2023/11/03 10:12:17;;;;;;;0.77;0.20;;;13.90;93.60;;;;;;5042855;28;20205;-65
2023/11/03 10:14:47;;;;;;;0.33;0.30;;;14.00;93.50;;;;;;5042353;28;20207;-65
2023/11/03 10:17:15;;;;;;;0.20;0.20;;;14.00;93.20;;;;;;5044129;28;20890;-65
2023/11/03 10:19:43;;;;;;;0.83;0.30;;;14.10;93.00;;;;;;5048274;28;20551;-65
2023/11/03 10:22:10;;;;;;;0.20;0.20;;;14.20;92.80;;;;;;5044549;28;20605;-65
2023/11/03 10:24:39;;;;;;;0.63;0.40;;;14.30;92.70;;;;;;5044860;28;20304;-65
2023/11/03 10:27:07;;;;;;;4.73;0.30;;;14.30;92.50;;;;;;5039866;28;20214;-64
2023/11/03 10:29:34;;;;;;;0.77;0.60;;;14.40;92.20;;;;;;5044598;28;20206;-64
2023/11/03 10:32:02;;;;;;;0.47;0.40;;;14.50;92.20;;;;;;5044516;28;20216;-65
2023/11/03 10:34:30;;;;;;;1.43;0.37;;;14.60;92.30;;;;;;5041427;28;20206;-65
2023/11/03 10:36:59;;;;;;;0.43;0.37;;;14.70;92.30;;;;;;5040996;28;20225;-65
2023/11/03 10:39:27;;;;;;;0.20;0.20;;;15.00;92.30;;;;;;5044816;28;20210;-66
2023/11/03 10:42:02;;;;;;;0.50;0.50;;;15.20;92.30;;;;;;5044446;28;20202;-65
2023/11/03 10:44:31;;;;;;;0.53;0.37;;;15.60;91.80;;;;;;5044688;28;20255;-66
2023/11/03 10:47:01;;;;;;;0.37;0.37;;;15.80;91.50;;;;;;5042069;28;20285;-68
2023/11/03 10:49:34;;;;;;;0.60;0.33;;;16.10;91.20;;;;;;5040747;28;20585;-66
2023/11/03 10:52:16;;;;;;;0.50;0.30;;;16.40;90.60;;;;;;5041176;28;20195;-65
2023/11/03 10:55:12;;;;;;;0.40;0.40;;;16.70;90.10;;;;;;5036592;28;20662;-65
2023/11/03 10:57:41;;;;;;;0.37;0.37;;;16.80;88.40;;;;;;5045421;28;20610;-66
2023/11/03 11:00:21;;;;;;;1.07;0.57;;;16.80;87.70;;;;;;5043264;28;20199;-66
2023/11/03 11:03:06;;;;;;;0.10;0.10;;;16.80;87.50;;;;;;5048048;28;20499;-65
2023/11/03 11:05:44;;;;;;;0.50;0.33;;;16.80;86.60;;;;;;5036804;28;20196;-66
2023/11/03 11:08:12;;;;;;;0.30;0.23;;;16.90;86.60;;;;;;5043603;28;20221;-65
2023/11/03 11:10:45;;;;;;;3.07;0.37;;;16.90;86.10;;;;;;5042445;28;20542;-65
2023/11/03 11:13:19;;;;;;;0.37;0.20;;;16.80;85.10;;;;;;5039917;28;20202;-67
2023/11/03 11:15:56;;;;;;;0.53;0.37;;;16.80;85.30;;;;;;5045849;28;20230;-64
2023/11/03 11:18:29;;;;;;;0.50;0.50;;;16.80;85.60;;;;;;5043096;28;20199;-63
2023/11/03 11:21:03;;;;;;;0.83;0.40;;;16.90;86.00;;;;;;5039014;28;20210;-66
2023/11/03 11:23:33;;;;;;;0.50;0.50;;;16.90;86.60;;;;;;5044719;28;20234;-68
2023/11/03 11:26:02;;;;;;;1.83;0.37;;;17.10;86.80;;;;;;5040977;28;20200;-66
2023/11/03 11:28:38;;;;;;;0.40;0.40;;;17.40;85.60;;;;;;5048057;28;20285;-68
2023/11/03 11:31:24;;;;;;;1.30;0.40;;;17.50;84.30;;;;;;5044181;28;20210;-62
2023/11/03 11:34:04;;;;;;;0.67;0.50;;;17.70;83.00;;;;;;5050078;28;20199;-64
2023/11/03 11:36:33;;;;;;;0.67;0.40;;;17.70;82.50;;;;;;5043296;28;20217;-65
2023/11/03 11:39:06;;;;;;;0.50;0.40;;;17.60;82.40;;;;;;5041355;28;20226;-65
2023/11/03 11:41:36;;;;;;;0.23;0.23;;;17.70;82.40;;;;;;5042275;28;20198;-63
2023/11/03 11:44:04;;;;;;;0.27;0.23;;;17.80;82.00;;;;;;5039765;28;20280;-64
2023/11/03 11:46:32;;;;;;;0.30;0.30;;;17.90;80.80;;;;;;5047914;28;20220;-64
2023/11/03 11:49:02;;;;;;;2.93;0.40;;;17.90;79.60;;;;;;5040676;28;20210;-64
2023/11/03 11:51:33;;;;;;;2.10;0.40;;;17.90;80.70;;;;;;5041873;28;20295;-63
2023/11/03 11:54:01;;;;;;;0.30;0.30;;;18.00;81.00;;;;;;5042376;28;20193;-64
2023/11/03 11:56:29;;;;;;;1.07;0.50;;;18.20;81.50;;;;;;5044823;28;20691;-66
2023/11/03 11:58:58;;;;;;;1.03;0.50;;;18.40;80.90;;;;;;5039644;28;20202;-65
2023/11/03 12:01:27;;;;;;;1.87;0.47;;;18.50;78.30;;;;;;5046369;28;20191;-65
2023/11/03 12:03:55;;;;;;;1.60;0.40;;;18.50;78.10;;;;;;5041215;28;20201;-65
2023/11/03 12:06:23;;;;;;;0.90;0.60;;;18.60;78.00;;;;;;5045103;28;20210;-65
2023/11/03 12:08:52;;;;;;;0.93;0.50;;;18.70;77.80;;;;;;5041788;28;20220;-64
2023/11/03 12:11:20;;;;;;;1.37;0.93;;;18.80;77.30;;;;;;5045077;28;20625;-64
2023/11/03 12:13:47;;;;;;;2.97;0.90;;;18.80;76.60;;;;;;5047217;28;20603;-65
2023/11/03 12:16:14;;;;;;;0.60;0.60;;;18.90;76.70;;;;;;5041673;28;20222;-63
2023/11/03 12:18:42;;;;;;;3.97;0.60;;;18.90;75.70;;;;;;5042875;28;20275;-64
2023/11/03 12:21:09;;;;;;;3.20;0.90;;;18.90;75.30;;;;;;5039752;28;20205;-64
2023/11/03 12:23:39;;;;;;;1.90;1.13;;;18.90;75.70;;;;;;5042928;28;20252;-64
2023/11/03 12:26:07;;;;;;;3.87;0.93;;;18.90;75.70;;;;;;5046097;28;20279;-64
2023/11/03 12:28:35;;;;;;;4.20;1.23;;;19.00;76.20;;;;;;5041821;28;20292;-64
2023/11/03 12:31:04;;;;;;;1.23;0.50;;;19.00;76.40;;;;;;5039255;28;20241;-63
2023/11/03 12:33:36;;;;;;;3.33;0.90;;;19.10;76.80;;;;;;5039817;28;20201;-64
2023/11/03 12:36:06;;;;;;;4.97;1.47;;;19.10;76.10;;;;;;5039787;28;20236;-63
2023/11/03 12:38:46;;;;;;;2.20;0.90;;;19.10;76.20;;;;;;5040967;28;20195;-64
2023/11/03 12:41:15;;;;;;;4.07;1.10;;;19.10;76.30;;;;;;5039554;28;20251;-64
2023/11/03 12:43:48;;;;;;;6.87;1.90;;;19.10;76.70;;;;;;5040655;28;20263;-63
2023/11/03 12:46:15;;;;;;;3.90;1.23;;;19.10;77.00;;;;;;5039036;28;20237;-64
2023/11/03 12:48:42;;;;;;;5.00;1.20;;;19.00;77.00;;;;;;5036339;28;20294;-63
2023/11/03 12:51:11;;;;;;;7.23;1.60;;;19.00;77.70;;;;;;5039572;28;20245;-64
2023/11/03 12:53:47;;;;;;;4.80;1.60;;;19.00;77.30;;;;;;5042646;28;20256;-64
2023/11/03 12:56:15;;;;;;;6.43;1.40;;;19.00;76.60;;;;;;5036587;28;20303;-64
2023/11/03 12:58:45;;;;;;;9.60;1.57;;;19.00;76.80;;;;;;5040598;28;20220;-64
2023/11/03 13:01:12;;;;;;;6.87;2.27;;;19.00;76.50;;;;;;5037837;28;20194;-64
2023/11/03 13:03:42;;;;;;;5.67;1.37;;;19.00;76.00;;;;;;5038435;28;20213;-64
2023/11/03 13:06:11;;;;;;;6.23;1.00;;;18.90;75.70;;;;;;5040097;28;20225;-64